Time;durP1;ratioP1;P1;durP2;ratioP2;P2;SDS_P1;SDS_P2;PMS_P1;PMS_P2;Temp;Humidity;BMP_temperature;BMP_pressure;BME280_temperature;BME280_humidity;BME280_pressure;Samples;Min_cycle;Max_cycle;Signal;HPM_P1;HPM_P2
2022/05/07 00:03:51;;;;;;;;;;;;;;;11.18;100.00;96146.44;10436486;28;1870;-75
2022/05/07 00:08:55;;;;;;;;;;;;;;;11.18;100.00;96148.34;10418517;28;1782;-73
2022/05/07 00:13:58;;;;;;;;;;;;;;;11.04;100.00;96150.75;10420772;28;1979;-74
2022/05/07 00:19:02;;;;;;;;;;;;;;;11.07;100.00;96151.03;10424778;28;1795;-74
2022/05/07 00:24:06;;;;;;;;;;;;;;;11.00;100.00;96145.09;10431473;28;1793;-75
2022/05/07 00:29:09;;;;;;;;;;;;;;;10.90;100.00;96139.72;10427085;28;2347;-75
2022/05/07 00:34:13;;;;;;;;;;;;;;;10.89;100.00;96143.47;10436721;28;1974;-75
2022/05/07 00:39:17;;;;;;;;;;;;;;;10.82;100.00;96130.28;10422169;28;1766;-74
2022/05/07 00:44:22;;;;;;;;;;;;;;;10.81;100.00;96131.38;10428554;28;1848;-74
2022/05/07 00:49:26;;;;;;;;;;;;;;;10.81;100.00;96125.97;10424081;28;1805;-73
2022/05/07 00:54:29;;;;;;;;;;;;;;;10.88;100.00;96119.50;10425739;28;1922;-75
2022/05/07 00:59:33;;;;;;;;;;;;;;;10.92;100.00;96116.03;10436922;28;1953;-74
2022/05/07 01:04:37;;;;;;;;;;;;;;;10.97;100.00;96110.66;10438753;28;1949;-74
2022/05/07 01:09:41;;;;;;;;;;;;;;;10.97;100.00;96112.53;10416289;28;1903;-73
2022/05/07 01:14:45;;;;;;;;;;;;;;;11.04;100.00;96107.72;10421574;28;1981;-74
2022/05/07 01:19:51;;;;;;;;;;;;;;;11.07;100.00;96107.19;10435823;28;2041;-74
2022/05/07 01:24:55;;;;;;;;;;;;;;;10.97;100.00;96101.78;10428675;28;1985;-74
2022/05/07 01:30:04;;;;;;;;;;;;;;;10.97;100.00;96097.22;10416701;28;1890;-75
2022/05/07 01:35:08;;;;;;;;;;;;;;;11.04;100.00;96091.56;10420458;28;2025;-75
2022/05/07 01:40:11;;;;;;;;;;;;;;;10.98;100.00;96089.94;10435732;28;1918;-75
2022/05/07 01:45:15;;;;;;;;;;;;;;;11.01;100.00;96089.44;10428876;28;2005;-73
2022/05/07 01:50:18;;;;;;;;;;;;;;;10.98;100.00;96092.63;10425407;28;1978;-74
2022/05/07 01:55:22;;;;;;;;;;;;;;;10.96;100.00;96095.59;10434748;28;1998;-74
2022/05/07 02:00:26;;;;;;;;;;;;;;;10.97;100.00;96091.03;10442298;28;1988;-74
2022/05/07 02:05:30;;;;;;;;;;;;;;;11.02;100.00;96093.72;10435744;28;1988;-74
2022/05/07 02:10:33;;;;;;;;;;;;;;;11.02;100.00;96086.47;10461483;28;1807;-73
2022/05/07 02:15:37;;;;;;;;;;;;;;;11.01;100.00;96084.84;10439586;28;1963;-74
2022/05/07 02:20:41;;;;;;;;;;;;;;;11.06;100.00;96086.72;10417330;28;2043;-75
2022/05/07 02:25:44;;;;;;;;;;;;;;;11.00;100.00;96087.78;10432932;28;2001;-73
2022/05/07 02:30:48;;;;;;;;;;;;;;;11.01;100.00;96081.34;10420132;28;1926;-75
2022/05/07 02:35:52;;;;;;;;;;;;;;;10.96;100.00;96084.03;10433970;28;2071;-73
2022/05/07 02:46:18;;;;;;;;;;;;;;;11.02;100.00;96082.97;10435345;28;1926;-74
2022/05/07 02:51:22;;;;;;;;;;;;;;;11.04;100.00;96084.31;10430803;28;1930;-75
2022/05/07 02:56:26;;;;;;;;;;;;;;;11.11;100.00;96075.97;10423534;28;1995;-75
2022/05/07 03:01:29;;;;;;;;;;;;;;;11.18;100.00;96071.13;10418717;28;1914;-74
2022/05/07 03:06:33;;;;;;;;;;;;;;;11.20;100.00;96071.66;10429805;28;2031;-73
2022/05/07 03:11:36;;;;;;;;;;;;;;;11.19;100.00;96078.09;10416440;28;1907;-74
2022/05/07 03:16:40;;;;;;;;;;;;;;;11.08;100.00;96080.00;10423223;28;1985;-74
2022/05/07 03:21:44;;;;;;;;;;;;;;;11.20;100.00;96074.38;10433134;28;2000;-74
2022/05/07 03:26:48;;;;;;;;;;;;;;;11.12;100.00;96077.56;10436175;28;1915;-73
2022/05/07 03:31:57;;;;;;;;;;;;;;;11.02;100.00;96080.28;10432527;28;1894;-74
2022/05/07 03:37:00;;;;;;;;;;;;;;;10.96;100.00;96074.09;10424451;28;2052;-74
2022/05/07 03:42:04;;;;;;;;;;;;;;;10.92;100.00;96078.38;10434077;28;1934;-73
2022/05/07 03:47:07;;;;;;;;;;;;;;;10.88;100.00;96081.88;10422923;28;1863;-74
2022/05/07 03:57:32;;;;;;;;;;;;;;;10.85;100.00;96080.53;10439429;28;2009;-74
2022/05/07 04:02:36;;;;;;;;;;;;;;;10.79;100.00;96090.47;10444338;28;2017;-74
2022/05/07 04:07:40;;;;;;;;;;;;;;;10.87;100.00;96080.25;10442501;28;1959;-74
2022/05/07 04:12:44;;;;;;;;;;;;;;;10.97;100.00;96085.66;10432911;28;1887;-73
2022/05/07 04:17:48;;;;;;;;;;;;;;;11.05;100.00;96082.41;10425905;28;1977;-75
2022/05/07 04:22:52;;;;;;;;;;;;;;;10.97;100.00;96085.66;10438870;28;1933;-74
2022/05/07 04:27:56;;;;;;;;;;;;;;;10.95;100.00;96079.75;10435364;28;1915;-74
2022/05/07 04:33:00;;;;;;;;;;;;;;;10.97;100.00;96093.72;10427832;28;1890;-76
2022/05/07 04:38:03;;;;;;;;;;;;;;;10.95;100.00;96088.63;10437384;28;1989;-74
2022/05/07 04:43:07;;;;;;;;;;;;;;;11.02;100.00;96088.34;10424117;28;1947;-75
2022/05/07 04:48:11;;;;;;;;;;;;;;;10.94;100.00;96095.06;10427772;28;1989;-74
2022/05/07 04:53:14;;;;;;;;;;;;;;;10.95;100.00;96094.00;10444163;28;1947;-74
2022/05/07 04:58:17;;;;;;;;;;;;;;;10.98;100.00;96095.31;10417677;28;2287;-73
2022/05/07 05:03:21;;;;;;;;;;;;;;;11.05;100.00;96093.97;10428868;28;1942;-73
2022/05/07 05:08:24;;;;;;;;;;;;;;;11.20;100.00;96092.41;10445442;28;1844;-74
2022/05/07 05:13:28;;;;;;;;;;;;;;;11.34;100.00;96096.94;10432034;28;1938;-74
2022/05/07 05:18:32;;;;;;;;;;;;;;;11.46;100.00;96098.56;10433003;28;1997;-74
2022/05/07 05:23:36;;;;;;;;;;;;;;;11.46;100.00;96106.66;10435450;28;2075;-72
2022/05/07 05:28:40;;;;;;;;;;;;;;;11.62;100.00;96105.53;10417824;28;1906;-74
2022/05/07 05:33:44;;;;;;;;;;;;;;;11.77;100.00;96105.53;10442786;28;1890;-72
2022/05/07 05:38:48;;;;;;;;;;;;;;;11.69;100.00;96108.75;10433829;28;1985;-75
2022/05/07 05:43:51;;;;;;;;;;;;;;;11.78;100.00;96112.50;10423451;28;1910;-74
2022/05/07 05:48:55;;;;;;;;;;;;;;;11.87;100.00;96105.50;10420878;28;2028;-74
2022/05/07 05:53:58;;;;;;;;;;;;;;;11.81;100.00;96106.59;10415919;28;2000;-73
2022/05/07 05:59:02;;;;;;;;;;;;;;;11.92;100.00;96101.19;10448835;28;2047;-74
2022/05/07 06:04:05;;;;;;;;;;;;;;;12.19;100.00;96101.63;10447474;28;1906;-74
2022/05/07 06:09:10;;;;;;;;;;;;;;;12.50;100.00;96096.13;10423410;28;1926;-74
2022/05/07 06:14:13;;;;;;;;;;;;;;;12.26;100.00;96099.44;10437354;28;1898;-75
2022/05/07 06:19:16;;;;;;;;;;;13.00;99.90;;;12.16;100.00;96097.63;10420994;28;1918;-76
2022/05/07 06:29:40;;;;;;;;;;;12.80;99.90;;;12.07;100.00;96101.13;10413961;28;2326;-74
2022/05/07 06:34:43;;;;;;;;;;;12.90;99.90;;;12.34;100.00;96098.06;10439237;28;2074;-74
2022/05/07 06:39:47;;;;;;;;;;;13.00;99.90;;;12.03;100.00;96097.41;10424548;28;1973;-75
2022/05/07 06:44:50;;;;;;;;;;;13.00;99.90;;;12.16;100.00;96099.50;10433133;28;1890;-73
2022/05/07 06:49:53;;;;;;;;;;;13.30;99.90;;;12.22;100.00;96105.69;10421594;28;1910;-74
2022/05/07 06:54:56;;;;;;;;;;;13.10;99.90;;;12.08;100.00;96094.66;10422457;28;2087;-75
2022/05/07 06:59:59;;;;;;;;;;;13.00;99.90;;;12.31;100.00;96094.03;10449602;28;1989;-76
2022/05/07 07:05:03;;;;;;;;;;;13.10;99.90;;;12.47;100.00;96102.03;10442259;28;1797;-76
2022/05/07 07:10:06;;;;;;;;;;;13.20;99.90;;;12.20;100.00;96107.81;10435612;28;1833;-77
2022/05/07 07:15:10;;;;;;;;;;;13.20;99.90;;;12.12;100.00;96103.81;10425358;28;1643;-76
2022/05/07 07:20:15;;;;;;;;;;;13.10;99.90;;;12.01;100.00;96105.72;10424252;28;1972;-75
2022/05/07 07:25:18;;;;;;;;;;;13.00;99.90;;;11.80;100.00;96113.03;10422876;28;1889;-76
2022/05/07 07:30:21;;;;;;;;;;;12.90;99.90;;;11.68;100.00;96117.09;10431305;28;1825;-75
2022/05/07 07:35:24;;;;;;;;;;;12.70;99.90;;;11.44;100.00;96119.53;10434895;28;1885;-75
2022/05/07 07:40:28;;;;;;;;;;;12.50;99.90;;;11.47;100.00;96116.31;10421915;28;2015;-76
2022/05/07 07:50:53;;;;;;;;;;;12.50;99.90;;;11.61;100.00;96117.38;10416797;28;1862;-75
2022/05/07 07:55:56;;;;;;;;;;;12.60;99.90;;;11.70;100.00;96131.91;10422864;28;1977;-75
2022/05/07 08:00:59;;;;;;;;;;;12.60;99.90;;;11.52;100.00;96130.59;10435456;28;1880;-76
2022/05/07 08:06:02;;;;;;;;;;;12.50;99.90;;;11.32;100.00;96141.34;10445355;28;1820;-76
2022/05/07 08:16:27;;;;;;;;;;;12.40;99.90;;;11.42;100.00;96152.13;10419062;28;2104;-75
2022/05/07 08:21:33;;;;;;;;;;;12.40;99.90;;;11.26;100.00;96158.56;10420186;28;1841;-74
2022/05/07 08:26:36;;;;;;;;;;;12.30;99.90;;;11.32;100.00;96160.19;10407560;28;1922;-73
2022/05/07 08:31:39;;;;;;;;;;;12.20;99.90;;;11.46;100.00;96160.47;10419731;28;1889;-74
2022/05/07 08:36:41;;;;;;;;;;;12.30;99.90;;;11.27;100.00;96163.69;10435273;28;1981;-75
2022/05/07 08:41:45;;;;;;;;;;;12.20;99.90;;;11.19;100.00;96161.53;10431059;28;1797;-72
2022/05/07 08:46:48;;;;;;;;;;;12.40;99.90;;;11.10;100.00;96176.59;10431866;28;1850;-76
2022/05/07 08:51:53;;;;;;;;;;;12.10;99.90;;;11.07;100.00;96174.44;10445864;28;1873;-75
2022/05/07 08:56:55;;;;;;;;;;;12.00;99.90;;;11.20;100.00;96173.94;10418608;28;1914;-75
2022/05/07 09:01:59;;;;;;;;;;;12.00;99.90;;;11.42;100.00;96178.22;10430736;28;1853;-75
2022/05/07 09:07:03;;;;;;;;;;;12.20;99.90;;;11.32;100.00;96182.56;10437206;28;1805;-76
2022/05/07 09:12:06;;;;;;;;;;;12.20;99.90;;;11.22;100.00;96179.03;10419093;28;1838;-74
2022/05/07 09:17:10;;;;;;;;;;;12.20;99.90;;;11.54;100.00;96181.47;10419620;28;1988;-75
2022/05/07 09:22:13;;;;;;;;;;;12.40;99.90;;;11.67;100.00;96178.22;10430049;28;1984;-74
2022/05/07 09:27:16;;;;;;;;;;;12.40;99.90;;;11.87;100.00;96172.84;10423623;28;1921;-75
2022/05/07 09:32:19;;;;;;;;;;;12.60;99.90;;;12.20;100.00;96162.53;10422651;28;1981;-74
2022/05/07 09:37:22;;;;;;;;;;;12.90;99.90;;;12.05;100.00;96160.69;10427838;28;1906;-75
2022/05/07 09:42:25;;;;;;;;;;;12.90;99.90;;;11.90;100.00;96158.03;10419174;28;1895;-75
2022/05/07 09:47:27;;;;;;;;;;;13.00;99.90;;;12.11;100.00;96154.22;10422321;28;1849;-75
2022/05/07 09:52:30;;;;;;;;;;;12.90;99.90;;;12.35;100.00;96153.63;10432727;28;1971;-74
2022/05/07 09:57:33;;;;;;;;;;;13.10;99.90;;;12.14;100.00;96150.16;10456603;28;1956;-72
2022/05/07 10:02:37;;;;;;;;;;;13.20;99.90;;;12.03;100.00;96151.28;10423506;28;1846;-77
2022/05/07 10:07:40;;;;;;;;;;;13.00;99.90;;;12.04;100.00;96150.19;10420541;28;1859;-74
2022/05/07 10:12:43;;;;;;;;;;;13.00;99.90;;;12.25;100.00;96149.06;10434582;28;1892;-73
2022/05/07 10:17:48;;;;;;;;;;;13.10;99.90;;;12.78;100.00;96138.56;10436861;28;1902;-72
2022/05/07 10:22:51;;;;;;;;;;;13.50;99.90;;;12.62;100.00;96131.66;10429526;28;1888;-73
2022/05/07 10:27:54;;;;;;;;;;;13.70;99.90;;;12.68;100.00;96136.75;10433162;28;1849;-76
2022/05/07 10:32:57;;;;;;;;;;;13.70;99.90;;;12.61;100.00;96130.84;10409785;28;1961;-75
2022/05/07 10:38:00;;;;;;;;;;;13.60;99.90;;;13.22;100.00;96135.06;10418233;28;3058;-74
2022/05/07 10:43:04;;;;;;;;;;;13.90;99.90;;;13.21;100.00;96128.06;10431963;28;2359;-78
2022/05/07 10:48:07;;;;;;;;;;;14.10;99.90;;;12.88;100.00;96121.53;10437823;28;2355;-77
2022/05/07 10:53:30;;;;;;;;;;;14.00;99.90;;;13.23;100.00;96125.88;10404019;28;2340;-75
2022/05/07 10:58:33;;;;;;;;;;;14.00;99.90;;;13.14;100.00;96120.25;10441584;28;1910;-73
2022/05/07 11:03:37;;;;;;;;;;;14.20;99.90;;;13.32;100.00;96118.81;10425328;28;2384;-73
2022/05/07 11:08:40;;;;;;;;;;;14.20;99.90;;;13.42;100.00;96118.75;10418476;28;3149;-73
2022/05/07 11:13:42;;;;;;;;;;;14.40;99.90;;;13.51;100.00;96108.94;10431150;28;2795;-73
2022/05/07 11:18:47;;;;;;;;;;;14.50;99.90;;;13.84;100.00;96111.06;10418596;28;2477;-74
2022/05/07 11:23:50;;;;;;;;;;;14.60;99.90;;;14.54;100.00;96106.75;10413120;28;2293;-74
2022/05/07 11:28:53;;;;;;;;;;;15.00;99.90;;;14.34;100.00;96107.78;10436192;28;1857;-71
2022/05/07 11:33:56;;;;;;;;;;;15.40;99.90;;;14.23;100.00;96105.47;10427472;28;1900;-73
2022/05/07 11:38:59;;;;;;;;;;;15.30;99.90;;;14.51;100.00;96096.53;10443403;28;1913;-75
2022/05/07 11:49:23;;;;;;;;;;;15.80;99.90;;;15.23;96.50;96100.91;10448079;28;1881;-71
2022/05/07 11:54:26;;;;;;;;;;;15.90;99.90;;;15.68;94.38;96086.63;10425579;28;2537;-75
2022/05/07 11:59:29;;;;;;;;;;;16.50;99.90;;;16.61;86.96;96075.59;10454216;28;1918;-73
2022/05/07 12:04:32;;;;;;;;;;;17.10;99.90;;;16.29;88.60;96079.25;10442172;28;1825;-73
2022/05/07 12:09:36;;;;;;;;;;;17.10;99.90;;;17.06;81.06;96070.28;10419536;28;3236;-73
2022/05/07 12:14:38;;;;;;;;;;;17.60;99.90;;;17.75;76.77;96061.78;10449289;28;2868;-75
2022/05/07 12:19:42;;;;;;;;;;;18.10;99.90;;;17.87;75.60;96056.56;10458133;28;2391;-73
2022/05/07 12:30:05;;;;;;;;;;;18.60;99.90;;;17.98;72.73;96057.09;10439596;28;1814;-73
2022/05/07 12:35:08;;;;;;;;;;;18.70;99.90;;;18.13;72.10;96059.38;10430820;28;1964;-71
2022/05/07 12:40:12;;;;;;;;;;;18.80;99.90;;;17.46;73.98;96054.09;10455702;28;1982;-71
2022/05/07 12:45:19;;;;;;;;;;;18.40;99.90;;;16.85;76.01;96047.41;10450779;28;2314;-73
2022/05/07 12:50:22;;;;;;;;;;;18.10;99.90;;;17.12;76.30;96046.50;10442935;28;1841;-74
2022/05/07 12:55:25;;;;;;;;;;;17.90;99.90;;;16.53;78.33;96051.88;10413046;28;1979;-72
2022/05/07 13:00:27;;;;;;;;;;;17.80;99.90;;;16.56;79.33;96045.84;10414335;28;1977;-72
2022/05/07 13:05:31;;;;;;;;;;;17.50;99.90;;;16.92;76.91;96047.78;10420284;28;1850;-73
2022/05/07 13:10:54;;;;;;;;;;;17.50;99.90;;;16.65;77.03;96035.88;10436505;28;2194;-71
2022/05/07 13:15:56;;;;;;;;;;;17.50;99.90;;;17.35;73.83;96031.00;10441428;28;1868;-74
2022/05/07 13:20:59;;;;;;;;;;;17.90;99.90;;;17.33;69.84;96025.88;10422639;28;2195;-74
2022/05/07 13:26:02;;;;;;;;;;;17.90;99.90;;;17.90;69.96;96023.31;10438342;28;2134;-70
2022/05/07 13:31:07;;;;;;;;;;;18.40;99.90;;;17.94;68.49;96023.47;10415810;28;1836;-71
2022/05/07 13:36:10;;;;;;;;;;;18.60;99.90;;;18.16;66.11;96026.13;10420378;28;1845;-72
2022/05/07 13:41:16;;;;;;;;;;;18.80;99.90;;;17.92;66.63;96017.56;10445333;28;1914;-75
2022/05/07 13:46:20;;;;;;;;;;;18.70;99.90;;;17.27;68.29;96011.63;10427040;28;2474;-73
2022/05/07 13:51:23;;;;;;;;;;;18.60;99.90;;;17.49;68.27;96004.53;10469428;28;1798;-74
2022/05/07 13:56:27;;;;;;;;;;;18.30;99.90;;;17.20;68.14;96005.03;10414855;28;1973;-72
2022/05/07 14:01:30;;;;;;;;;;;18.40;99.90;;;17.08;67.51;96004.78;10428003;28;1914;-73
2022/05/07 14:06:33;;;;;;;;;;;18.40;99.90;;;16.79;69.36;96003.28;10432069;28;1872;-73
2022/05/07 14:11:36;;;;;;;;;;;18.00;99.90;;;17.03;66.00;95998.34;10416487;28;1909;-74
2022/05/07 14:16:39;;;;;;;;;;;18.00;99.90;;;17.01;68.96;95999.78;10416917;28;1818;-72
2022/05/07 14:21:43;;;;;;;;;;;17.90;99.90;;;17.11;69.60;96001.44;10436782;28;2205;-74
2022/05/07 14:26:46;;;;;;;;;;;18.00;99.90;;;16.49;72.69;95999.34;10416453;28;1865;-76
2022/05/07 14:31:52;;;;;;;;;;;17.70;99.90;;;16.17;74.66;96001.09;10438976;28;1865;-76
2022/05/07 14:36:56;;;;;;;;;;;17.50;99.90;;;15.42;80.07;96006.88;10423206;28;1883;-74
2022/05/07 14:41:58;;;;;;;;;;;17.00;99.90;;;14.76;86.22;96011.50;10422722;28;1989;-71
2022/05/07 14:47:01;;;;;;;;;;;16.30;99.90;;;14.46;90.21;96018.16;10444823;28;1910;-74
2022/05/07 14:52:05;;;;;;;;;;;15.80;99.90;;;14.52;90.32;96021.59;10438995;28;1837;-74
2022/05/07 14:57:29;;;;;;;;;;;15.70;99.90;;;14.46;90.12;96015.44;10439392;28;1801;-77
2022/05/07 15:02:32;;;;;;;;;;;15.60;99.90;;;14.14;95.88;96018.81;10439147;28;1977;-79
2022/05/07 15:07:35;;;;;;;;;;;15.40;99.90;;;13.65;100.00;96024.53;10430605;28;1891;-75
2022/05/07 15:12:38;;;;;;;;;;;15.10;99.90;;;13.85;100.00;96018.88;10433966;28;1801;-74
2022/05/07 15:17:41;;;;;;;;;;;15.00;99.90;;;14.22;100.00;96017.34;10443045;28;2027;-78
2022/05/07 15:22:44;;;;;;;;;;;15.10;99.90;;;14.48;96.31;96015.13;10427732;28;1927;-73
2022/05/07 15:27:47;;;;;;;;;;;15.50;99.90;;;14.78;94.50;96019.31;10414084;28;2266;-74
2022/05/07 15:38:11;;;;;;;;;;;15.70;99.90;;;14.29;92.23;96012.41;10432450;28;1914;-75
2022/05/07 15:43:14;;;;;;;;;;;15.60;99.90;;;14.22;92.83;96017.34;10434908;28;1842;-76
2022/05/07 15:48:19;;;;;;;;;;;15.40;99.90;;;13.95;92.92;96016.06;10434446;28;1833;-73
2022/05/07 15:53:23;;;;;;;;;;;15.10;99.90;;;13.97;92.98;96007.66;10433458;28;1778;-76
2022/05/07 15:58:29;;;;;;;;;;;15.00;99.90;;;14.16;92.45;96018.53;10434156;28;1907;-76
2022/05/07 16:03:32;;;;;;;;;;;15.10;99.90;;;14.03;90.96;96017.31;10430058;28;2067;-72
2022/05/07 16:08:35;;;;;;;;;;;15.10;99.90;;;13.86;86.69;96020.50;10429690;28;1825;-72
2022/05/07 16:13:39;;;;;;;;;;;15.10;99.90;;;13.96;88.54;96014.19;10416563;28;1893;-72
2022/05/07 16:18:42;;;;;;;;;;;15.00;99.90;;;13.81;88.75;96019.78;10435284;28;1969;-74
2022/05/07 16:29:06;;;;;;;;;;;15.00;99.90;;;13.82;89.81;96014.06;10432810;28;1809;-74
2022/05/07 16:34:09;;;;;;;;;;;14.90;99.90;;;13.84;90.05;96022.69;10417819;28;1814;-73
2022/05/07 16:39:13;;;;;;;;;;;14.90;99.90;;;13.70;94.80;96010.97;10426318;28;1914;-74
2022/05/07 16:44:18;;;;;;;;;;;14.90;99.90;;;13.51;99.17;96005.50;10432786;28;1754;-71
2022/05/07 16:49:21;;;;;;;;;;;15.80;99.90;;;13.44;99.14;96010.44;10411086;28;3206;-71
2022/05/07 16:54:25;;;;;;;;;;;14.60;99.90;;;13.46;100.00;96000.94;10414665;28;1726;-73
2022/05/07 16:59:28;;;;;;;;;;;14.60;99.90;;;13.65;98.44;96002.91;10433432;28;1906;-75
2022/05/07 17:04:32;;;;;;;;;;;14.60;99.90;;;13.60;100.00;96011.06;10441380;28;1841;-75
2022/05/07 17:09:40;;;;;;;;;;;14.70;99.90;;;13.54;100.00;96010.31;10441328;28;2253;-75
2022/05/07 17:14:44;;;;;;;;;;;14.70;99.90;;;13.31;100.00;96014.63;10447204;28;1794;-75
2022/05/07 17:19:48;;;;;;;;;;;14.60;99.90;;;13.24;100.00;96017.66;10432846;28;1979;-76
2022/05/07 17:24:52;;;;;;;;;;;14.40;99.90;;;13.15;100.00;96021.19;10432868;28;4302;-73
2022/05/07 17:29:55;;;;;;;;;;;14.30;99.90;;;12.97;100.00;96025.38;10417948;28;4290;-74
2022/05/07 17:34:59;;;;;;;;;;;14.10;99.90;;;12.99;100.00;96029.44;10417310;28;4252;-75
2022/05/07 17:40:03;;;;;;;;;;;14.10;99.90;;;12.97;100.00;96036.97;10447263;28;1975;-75
2022/05/07 17:45:06;;;;;;;;;;;14.10;99.90;;;12.86;100.00;96034.66;10444949;28;1852;-75
2022/05/07 17:50:13;;;;;;;;;;;14.00;99.90;;;12.76;100.00;96040.94;10425357;28;1794;-73
2022/05/07 17:55:17;;;;;;;;;;;14.00;99.90;;;12.73;100.00;96033.41;10432796;28;1762;-73
2022/05/07 18:00:20;;;;;;;;;;;13.80;99.90;;;12.65;100.00;96039.38;10417493;28;1926;-75
2022/05/07 18:05:23;;;;;;;;;;;13.80;99.90;;;12.56;100.00;96041.06;10431743;28;1750;-75
2022/05/07 18:10:27;;;;;;;;;;;13.80;99.90;;;12.64;100.00;96041.28;10431755;28;1766;-74
2022/05/07 18:15:29;;;;;;;;;;;13.70;99.90;;;12.53;100.00;96057.78;10425246;28;1880;-74
2022/05/07 18:20:33;;;;;;;;;;;13.70;99.90;;;12.49;100.00;96045.97;10421833;28;1981;-74
2022/05/07 18:25:36;;;;;;;;;;;13.60;99.90;;;12.39;100.00;96047.63;10415504;28;4272;-76
2022/05/07 18:30:39;;;;;;;;;;;13.60;99.90;;;12.32;100.00;96057.09;10423811;28;1881;-75
2022/05/07 18:35:43;;;;;;;;;;;13.50;99.90;;;12.36;100.00;96056.28;10431864;28;1830;-75
2022/05/07 18:46:11;;;;;;;;;;;13.50;99.90;;;12.16;100.00;96054.50;10424594;28;1790;-74
2022/05/07 18:51:14;;;;;;;;;;;13.40;99.90;;;13.10;100.00;96062.53;10436398;28;1897;-74
2022/05/07 19:01:38;;;;;;;;;;;14.10;99.90;;;13.18;100.00;96066.53;10412096;28;1993;-74
2022/05/07 19:06:41;;;;;;;;;;;14.30;99.90;;;13.17;100.00;96068.44;10429982;28;1915;-75
2022/05/07 19:11:44;;;;;;;;;;;14.30;99.90;;;13.37;100.00;96067.47;10426156;28;1800;-75
2022/05/07 19:16:47;;;;;;;;;;;14.20;99.90;;;13.37;100.00;96067.47;10428954;28;1837;-75
2022/05/07 19:21:51;;;;;;;;;;;14.40;99.90;;;13.29;100.00;96076.16;10419619;28;1910;-76
2022/05/07 19:27:01;;;;;;;;;;;14.30;99.90;;;13.19;100.00;96071.63;10404540;28;4184;-75
2022/05/07 19:32:04;;;;;;;;;;;14.20;99.90;;;13.44;100.00;96072.53;10413687;28;1759;-75
2022/05/07 19:37:07;;;;;;;;;;;14.30;99.90;;;13.41;100.00;96078.50;10418806;28;1774;-74
2022/05/07 19:42:11;;;;;;;;;;;14.40;99.90;;;13.11;100.00;96085.75;10432168;28;2261;-75
2022/05/07 19:47:14;;;;;;;;;;;14.30;99.90;;;13.05;100.00;96086.06;10416493;28;1843;-74
2022/05/07 19:52:18;;;;;;;;;;;14.20;99.90;;;12.67;100.00;96088.47;10414008;28;1825;-75
2022/05/07 19:57:21;;;;;;;;;;;13.90;99.90;;;12.41;100.00;96091.31;10423412;28;1771;-74
2022/05/07 20:02:24;;;;;;;;;;;13.70;99.90;;;12.11;100.00;96094.13;10408216;28;1984;-75
2022/05/07 20:07:27;;;;;;;;;;;13.40;99.90;;;12.09;100.00;96099.81;10414429;28;1854;-74
2022/05/07 20:12:50;;;;;;;;;;;13.30;99.90;;;11.98;100.00;96098.22;10422682;28;1898;-74
2022/05/07 20:17:53;;;;;;;;;;;13.20;99.90;;;12.08;100.00;96100.06;10432007;28;1785;-75
2022/05/07 20:22:57;;;;;;;;;;;13.10;99.90;;;12.03;100.00;96100.09;10417922;28;1989;-74
2022/05/07 20:28:00;;;;;;;;;;;13.20;99.90;;;12.08;100.00;96100.06;10404656;28;4100;-74
2022/05/07 20:33:03;;;;;;;;;;;13.20;99.90;;;12.15;100.00;96108.66;10424868;28;1956;-73
2022/05/07 20:38:06;;;;;;;;;;;13.20;99.90;;;12.16;100.00;96102.19;10452142;28;1846;-74
2022/05/07 20:48:26;;;;;;;;;;;13.20;99.90;;;12.15;100.00;96105.94;10433532;28;1911;-72
2022/05/07 20:53:29;;;;;;;;;;;13.20;99.90;;;12.09;100.00;96101.69;10436426;28;4302;-73
2022/05/07 20:58:32;;;;;;;;;;;13.20;99.90;;;12.09;100.00;96090.91;10435783;28;1814;-74
2022/05/07 21:03:35;;;;;;;;;;;13.20;99.90;;;12.07;100.00;96103.84;10423202;28;1918;-75
2022/05/07 21:08:38;;;;;;;;;;;13.20;99.90;;;12.01;100.00;96105.72;10423213;28;1877;-74
2022/05/07 21:13:41;;;;;;;;;;;13.10;99.90;;;11.99;100.00;96112.50;10439720;28;2376;-75
2022/05/07 21:18:45;;;;;;;;;;;13.10;99.90;;;12.00;100.00;96109.50;10419510;28;1833;-73
2022/05/07 21:23:48;;;;;;;;;;;13.10;99.90;;;11.99;100.00;96115.19;10413929;28;1992;-74
2022/05/07 21:28:51;;;;;;;;;;;13.10;99.90;;;11.99;100.00;96113.28;10433820;28;4266;-75
2022/05/07 21:33:54;;;;;;;;;;;13.10;99.90;;;12.03;100.00;96108.97;10449375;28;1837;-74
2022/05/07 21:38:57;;;;;;;;;;;13.10;99.90;;;11.94;100.00;96117.88;10429339;28;1868;-75
2022/05/07 21:44:03;;;;;;;;;;;13.10;99.90;;;11.95;100.00;96111.41;10435780;28;2038;-75
2022/05/07 21:49:07;;;;;;;;;;;13.10;99.90;;;11.93;100.00;96124.34;10415939;28;1853;-74
2022/05/07 21:54:10;;;;;;;;;;;13.00;99.90;;;12.01;100.00;96121.09;10412869;28;1816;-74
2022/05/07 21:59:14;;;;;;;;;;;13.00;99.90;;;12.02;100.00;96120.00;10429798;28;1825;-73
2022/05/07 22:04:17;;;;;;;;;;;13.10;99.90;;;12.04;100.00;96117.88;10420624;28;1914;-74
2022/05/07 22:09:21;;;;;;;;;;;13.10;99.90;;;11.99;100.00;96120.56;10430979;28;1960;-74
2022/05/07 22:14:24;;;;;;;;;;;13.10;99.90;;;11.94;100.00;96120.56;10422766;28;1858;-73
2022/05/07 22:19:27;;;;;;;;;;;13.00;99.90;;;11.94;100.00;96124.06;10423549;28;1770;-74
2022/05/07 22:24:31;;;;;;;;;;;13.00;99.90;;;11.95;100.00;96120.31;10412985;28;1833;-74
2022/05/07 22:29:34;;;;;;;;;;;13.00;99.90;;;11.98;100.00;96129.75;10434114;28;4138;-74
2022/05/07 22:34:37;;;;;;;;;;;13.00;99.90;;;11.93;100.00;96127.84;10435953;28;1921;-73
2022/05/07 22:39:41;;;;;;;;;;;13.00;99.90;;;11.89;100.00;96135.66;10426494;28;1918;-75
2022/05/07 22:44:44;;;;;;;;;;;13.00;99.90;;;11.90;100.00;96129.22;10424952;28;1869;-74
2022/05/07 22:49:48;;;;;;;;;;;13.00;99.90;;;11.84;100.00;96127.63;10427390;28;1846;-73
2022/05/07 22:54:53;;;;;;;;;;;13.00;99.90;;;11.78;100.00;96131.38;10422899;28;1869;-74
2022/05/07 22:59:57;;;;;;;;;;;12.90;99.90;;;11.74;100.00;96138.38;10413807;28;1914;-75
2022/05/07 23:05:01;;;;;;;;;;;12.80;99.90;;;11.73;100.00;96136.75;10434822;28;1837;-74
2022/05/07 23:10:04;;;;;;;;;;;12.90;99.90;;;11.69;100.00;96134.88;10414848;28;1837;-74
2022/05/07 23:15:07;;;;;;;;;;;12.90;99.90;;;11.72;100.00;96137.84;10416715;28;1928;-75
2022/05/07 23:20:10;;;;;;;;;;;12.80;99.90;;;11.71;100.00;96133.53;10418939;28;1996;-75
2022/05/07 23:25:13;;;;;;;;;;;12.80;99.90;;;11.63;100.00;96136.75;10432064;28;1848;-75
2022/05/07 23:30:17;;;;;;;;;;;13.40;99.90;;;11.61;100.00;96138.91;10410645;28;4124;-75
2022/05/07 23:35:21;;;;;;;;;;;12.70;99.90;;;11.60;100.00;96130.03;10429908;28;1798;-74
2022/05/07 23:40:24;;;;;;;;;;;12.70;99.90;;;11.56;100.00;96133.53;10432179;28;2195;-76
2022/05/07 23:45:27;;;;;;;;;;;12.70;99.90;;;11.55;100.00;96137.31;10428240;28;1762;-77
2022/05/07 23:50:30;;;;;;;;;;;12.70;99.90;;;11.51;100.00;96134.34;10434012;28;1848;-76
2022/05/07 23:55:33;;;;;;;;;;;12.70;99.90;;;11.50;100.00;96131.94;10436767;28;1801;-77
